sensor_id;sensor_type;location;lat;lon;timestamp;pressure;altitude;pressure_sealevel;temperature;humidity
70976;BME280;58635;51.198;6.010;2023-03-20T00:01:20;101834.66;;;13.74;57.00
70976;BME280;58635;51.198;6.010;2023-03-20T00:03:46;101838.22;;;13.73;56.97
70976;BME280;58635;51.198;6.010;2023-03-20T00:06:16;101835.63;;;13.73;56.71
70976;BME280;58635;51.198;6.010;2023-03-20T00:08:43;101835.63;;;13.73;57.06
70976;BME280;58635;51.198;6.010;2023-03-20T00:11:26;101844.59;;;13.70;56.99
70976;BME280;58635;51.198;6.010;2023-03-20T00:14:00;101846.41;;;13.70;56.80
70976;BME280;58635;51.198;6.010;2023-03-20T00:16:32;101850.00;;;13.69;57.07
70976;BME280;58635;51.198;6.010;2023-03-20T00:18:58;101849.19;;;13.68;57.22
70976;BME280;58635;51.198;6.010;2023-03-20T00:21:25;101852.59;;;13.69;57.09
70976;BME280;58635;51.198;6.010;2023-03-20T00:23:52;101850.00;;;13.69;57.13
70976;BME280;58635;51.198;6.010;2023-03-20T00:26:19;101851.81;;;13.68;57.09
70976;BME280;58635;51.198;6.010;2023-03-20T00:28:48;101845.59;;;13.69;57.06
70976;BME280;58635;51.198;6.010;2023-03-20T00:31:46;101848.59;;;13.66;57.16
70976;BME280;58635;51.198;6.010;2023-03-20T00:34:14;101846.97;;;13.65;57.30
70976;BME280;58635;51.198;6.010;2023-03-20T00:36:40;101855.78;;;13.64;57.55
70976;BME280;58635;51.198;6.010;2023-03-20T00:39:06;101859.97;;;13.65;57.27
70976;BME280;58635;51.198;6.010;2023-03-20T00:44:37;101846.56;;;13.62;57.37
70976;BME280;58635;51.198;6.010;2023-03-20T00:47:10;101844.91;;;13.61;57.45
70976;BME280;58635;51.198;6.010;2023-03-20T00:49:37;101844.31;;;13.59;57.57
70976;BME280;58635;51.198;6.010;2023-03-20T00:52:04;101833.72;;;13.60;57.51
70976;BME280;58635;51.198;6.010;2023-03-20T00:54:30;101822.53;;;13.60;57.54
70976;BME280;58635;51.198;6.010;2023-03-20T00:57:08;101823.31;;;13.60;57.47
70976;BME280;58635;51.198;6.010;2023-03-20T00:59:40;101817.31;;;13.60;57.57
70976;BME280;58635;51.198;6.010;2023-03-20T01:02:06;101815.72;;;13.59;57.36
70976;BME280;58635;51.198;6.010;2023-03-20T01:04:38;101814.72;;;13.60;57.34
70976;BME280;58635;51.198;6.010;2023-03-20T01:07:05;101806.94;;;13.60;57.51
70976;BME280;58635;51.198;6.010;2023-03-20T01:09:31;101803.53;;;13.59;57.35
70976;BME280;58635;51.198;6.010;2023-03-20T01:11:58;101801.72;;;13.60;57.46
70976;BME280;58635;51.198;6.010;2023-03-20T01:14:24;101795.72;;;13.59;57.32
70976;BME280;58635;51.198;6.010;2023-03-20T01:16:50;101794.91;;;13.59;57.31
70976;BME280;58635;51.198;6.010;2023-03-20T01:19:16;101788.91;;;13.58;57.19
70976;BME280;58635;51.198;6.010;2023-03-20T01:21:41;101796.91;;;13.57;56.96
70976;BME280;58635;51.198;6.010;2023-03-20T01:24:07;101801.31;;;13.56;56.86
70976;BME280;58635;51.198;6.010;2023-03-20T01:26:36;101799.69;;;13.55;56.68
70976;BME280;58635;51.198;6.010;2023-03-20T01:29:03;101799.69;;;13.55;56.54
70976;BME280;58635;51.198;6.010;2023-03-20T01:31:29;101814.69;;;13.53;56.53
70976;BME280;58635;51.198;6.010;2023-03-20T01:33:55;101806.28;;;13.51;56.42
70976;BME280;58635;51.198;6.010;2023-03-20T01:36:22;101807.28;;;13.50;56.27
70976;BME280;58635;51.198;6.010;2023-03-20T01:38:57;101817.22;;;13.46;56.04
70976;BME280;58635;51.198;6.010;2023-03-20T01:41:24;101820.00;;;13.45;56.09
70976;BME280;58635;51.198;6.010;2023-03-20T01:43:51;101831.38;;;13.44;55.61
70976;BME280;58635;51.198;6.010;2023-03-20T01:51:17;101829.56;;;13.38;55.74
70976;BME280;58635;51.198;6.010;2023-03-20T01:53:44;101808.75;;;13.38;55.47
70976;BME280;58635;51.198;6.010;2023-03-20T01:56:13;101813.13;;;13.37;55.34
70976;BME280;58635;51.198;6.010;2023-03-20T01:58:43;101822.72;;;13.37;55.52
70976;BME280;58635;51.198;6.010;2023-03-20T02:01:11;101827.31;;;13.35;55.33
70976;BME280;58635;51.198;6.010;2023-03-20T02:03:39;101832.69;;;13.33;55.58
70976;BME280;58635;51.198;6.010;2023-03-20T02:06:07;101840.06;;;13.30;55.57
70976;BME280;58635;51.198;6.010;2023-03-20T02:08:36;101839.44;;;13.28;55.40
70976;BME280;58635;51.198;6.010;2023-03-20T02:11:05;101819.38;;;13.22;55.50
70976;BME280;58635;51.198;6.010;2023-03-20T02:13:31;101813.13;;;13.16;55.49
70976;BME280;58635;51.198;6.010;2023-03-20T02:18:26;101809.63;;;13.09;55.61
70976;BME280;58635;51.198;6.010;2023-03-20T02:27:01;101822.13;;;12.99;55.77
70976;BME280;58635;51.198;6.010;2023-03-20T02:37:50;101812.94;;;12.81;55.85
70976;BME280;58635;51.198;6.010;2023-03-20T02:40:51;101796.56;;;12.81;55.68
70976;BME280;58635;51.198;6.010;2023-03-20T02:56:20;101818.09;;;12.60;56.00
70976;BME280;58635;51.198;6.010;2023-03-20T02:58:50;101823.66;;;12.57;55.89
70976;BME280;58635;51.198;6.010;2023-03-20T03:01:22;101829.97;;;12.54;55.95
70976;BME280;58635;51.198;6.010;2023-03-20T03:03:56;101836.16;;;12.53;56.03
70976;BME280;58635;51.198;6.010;2023-03-20T03:06:33;101835.91;;;12.48;56.03
70976;BME280;58635;51.198;6.010;2023-03-20T03:09:22;101845.19;;;12.43;55.99
70976;BME280;58635;51.198;6.010;2023-03-20T03:11:56;101846.19;;;12.42;56.18
70976;BME280;58635;51.198;6.010;2023-03-20T03:14:42;101831.97;;;12.38;56.09
70976;BME280;58635;51.198;6.010;2023-03-20T03:17:12;101840.56;;;12.38;56.42
70976;BME280;58635;51.198;6.010;2023-03-20T03:19:40;101834.56;;;12.38;56.26
70976;BME280;58635;51.198;6.010;2023-03-20T03:22:08;101835.38;;;12.38;56.41
70976;BME280;58635;51.198;6.010;2023-03-20T03:24:36;101830.34;;;12.37;56.58
70976;BME280;58635;51.198;6.010;2023-03-20T03:27:08;101822.56;;;12.37;56.50
70976;BME280;58635;51.198;6.010;2023-03-20T03:29:38;101821.78;;;12.36;56.59
70976;BME280;58635;51.198;6.010;2023-03-20T03:32:06;101822.56;;;12.37;56.35
70976;BME280;58635;51.198;6.010;2023-03-20T03:34:32;101830.72;;;12.34;56.38
70976;BME280;58635;51.198;6.010;2023-03-20T03:37:08;101837.06;;;12.31;56.50
70976;BME280;58635;51.198;6.010;2023-03-20T03:42:36;101806.84;;;12.23;56.81
70976;BME280;58635;51.198;6.010;2023-03-20T03:45:23;101805.56;;;12.19;56.94
70976;BME280;58635;51.198;6.010;2023-03-20T03:47:53;101803.16;;;12.18;57.11
70976;BME280;58635;51.198;6.010;2023-03-20T03:50:24;101798.16;;;12.16;57.14
70976;BME280;58635;51.198;6.010;2023-03-20T03:52:53;101793.50;;;12.12;56.99
70976;BME280;58635;51.198;6.010;2023-03-20T03:55:25;101783.50;;;12.09;57.29
70976;BME280;58635;51.198;6.010;2023-03-20T03:57:56;101783.31;;;12.10;57.40
70976;BME280;58635;51.198;6.010;2023-03-20T04:00:25;101781.72;;;12.09;57.50
70976;BME280;58635;51.198;6.010;2023-03-20T04:02:56;101780.25;;;12.07;57.43
70976;BME280;58635;51.198;6.010;2023-03-20T04:05:24;101788.03;;;12.07;57.57
70976;BME280;58635;51.198;6.010;2023-03-20T04:07:54;101792.41;;;12.06;57.36
70976;BME280;58635;51.198;6.010;2023-03-20T04:10:20;101778.84;;;12.04;57.63
70976;BME280;58635;51.198;6.010;2023-03-20T04:12:45;101792.78;;;12.03;57.38
70976;BME280;58635;51.198;6.010;2023-03-20T04:15:13;101798.16;;;12.02;57.53
70976;BME280;58635;51.198;6.010;2023-03-20T04:17:40;101794.31;;;11.97;57.57
70976;BME280;58635;51.198;6.010;2023-03-20T04:20:06;101785.06;;;11.95;57.59
70976;BME280;58635;51.198;6.010;2023-03-20T04:22:32;101798.41;;;11.92;57.69
70976;BME280;58635;51.198;6.010;2023-03-20T04:25:00;101790.81;;;11.90;57.81
70976;BME280;58635;51.198;6.010;2023-03-20T04:27:27;101799.75;;;11.88;58.15
70976;BME280;58635;51.198;6.010;2023-03-20T04:29:53;101795.72;;;11.85;57.99
70976;BME280;58635;51.198;6.010;2023-03-20T04:32:18;101802.84;;;11.83;58.03
70976;BME280;58635;51.198;6.010;2023-03-20T04:34:43;101790.06;;;11.82;58.10
70976;BME280;58635;51.198;6.010;2023-03-20T04:37:09;101790.88;;;11.82;57.92
70976;BME280;58635;51.198;6.010;2023-03-20T04:39:35;101782.28;;;11.82;58.14
70976;BME280;58635;51.198;6.010;2023-03-20T04:42:02;101782.91;;;11.84;58.04
70976;BME280;58635;51.198;6.010;2023-03-20T04:44:28;101779.06;;;11.80;58.11
70976;BME280;58635;51.198;6.010;2023-03-20T04:46:54;101785.69;;;11.82;58.05
70976;BME280;58635;51.198;6.010;2023-03-20T04:49:19;101778.91;;;11.81;57.97
70976;BME280;58635;51.198;6.010;2023-03-20T04:51:44;101778.09;;;11.81;57.95
70976;BME280;58635;51.198;6.010;2023-03-20T04:54:10;101778.91;;;11.81;58.04
70976;BME280;58635;51.198;6.010;2023-03-20T04:56:35;101775.69;;;11.79;58.01
70976;BME280;58635;51.198;6.010;2023-03-20T04:59:01;101779.22;;;11.78;58.06
70976;BME280;58635;51.198;6.010;2023-03-20T05:01:26;101783.78;;;11.76;57.84
70976;BME280;58635;51.198;6.010;2023-03-20T05:03:52;101785.56;;;11.76;58.00
70976;BME280;58635;51.198;6.010;2023-03-20T05:06:17;101776.19;;;11.75;58.16
70976;BME280;58635;51.198;6.010;2023-03-20T05:08:42;101785.75;;;11.74;57.97
70976;BME280;58635;51.198;6.010;2023-03-20T05:11:08;101786.88;;;11.71;58.00
70976;BME280;58635;51.198;6.010;2023-03-20T05:13:33;101780.47;;;11.67;57.97
70976;BME280;58635;51.198;6.010;2023-03-20T05:15:59;101789.03;;;11.68;58.18
70976;BME280;58635;51.198;6.010;2023-03-20T05:18:25;101778.84;;;11.66;57.94
70976;BME280;58635;51.198;6.010;2023-03-20T05:20:50;101770.00;;;11.61;58.08
70976;BME280;58635;51.198;6.010;2023-03-20T05:23:16;101767.56;;;11.59;58.14
70976;BME280;58635;51.198;6.010;2023-03-20T05:25:41;101771.94;;;11.59;58.09
70976;BME280;58635;51.198;6.010;2023-03-20T05:28:06;101771.50;;;11.55;57.88
70976;BME280;58635;51.198;6.010;2023-03-20T05:30:32;101770.06;;;11.53;58.41
70976;BME280;58635;51.198;6.010;2023-03-20T05:32:57;101773.47;;;11.53;58.22
70976;BME280;58635;51.198;6.010;2023-03-20T05:35:23;101772.66;;;11.53;58.07
70976;BME280;58635;51.198;6.010;2023-03-20T05:37:48;101777.84;;;11.53;58.39
70976;BME280;58635;51.198;6.010;2023-03-20T05:40:15;101782.22;;;11.52;58.21
70976;BME280;58635;51.198;6.010;2023-03-20T05:42:40;101773.00;;;11.50;58.13
70976;BME280;58635;51.198;6.010;2023-03-20T05:45:06;101772.38;;;11.48;58.30
70976;BME280;58635;51.198;6.010;2023-03-20T05:47:32;101774.81;;;11.49;58.41
70976;BME280;58635;51.198;6.010;2023-03-20T05:49:57;101779.19;;;11.49;58.27
70976;BME280;58635;51.198;6.010;2023-03-20T05:52:23;101780.59;;;11.51;58.18
70976;BME280;58635;51.198;6.010;2023-03-20T05:54:48;101775.25;;;11.53;58.20
70976;BME280;58635;51.198;6.010;2023-03-20T05:57:14;101764.72;;;11.54;58.02
70976;BME280;58635;51.198;6.010;2023-03-20T05:59:40;101767.31;;;11.54;58.31
70976;BME280;58635;51.198;6.010;2023-03-20T06:02:05;101770.69;;;11.55;58.26
70976;BME280;58635;51.198;6.010;2023-03-20T06:04:31;101775.50;;;11.58;58.29
70976;BME280;58635;51.198;6.010;2023-03-20T06:06:57;101771.13;;;11.58;58.00
70976;BME280;58635;51.198;6.010;2023-03-20T06:09:22;101767.75;;;11.58;58.12
70976;BME280;58635;51.198;6.010;2023-03-20T06:11:47;101770.16;;;11.59;57.90
70976;BME280;58635;51.198;6.010;2023-03-20T06:14:13;101766.75;;;11.59;58.06
70976;BME280;58635;51.198;6.010;2023-03-20T06:16:38;101767.56;;;11.59;58.08
70976;BME280;58635;51.198;6.010;2023-03-20T06:19:04;101770.81;;;11.61;58.18
70976;BME280;58635;51.198;6.010;2023-03-20T06:21:29;101773.41;;;11.61;58.02
70976;BME280;58635;51.198;6.010;2023-03-20T06:23:55;101783.28;;;11.58;58.01
70976;BME280;58635;51.198;6.010;2023-03-20T06:26:22;101787.84;;;11.56;58.06
70976;BME280;58635;51.198;6.010;2023-03-20T06:28:47;101805.00;;;11.57;58.07
70976;BME280;58635;51.198;6.010;2023-03-20T06:31:13;101806.97;;;11.55;58.13
70976;BME280;58635;51.198;6.010;2023-03-20T06:33:38;101802.59;;;11.55;58.29
70976;BME280;58635;51.198;6.010;2023-03-20T06:36:04;101809.03;;;11.59;58.17
70976;BME280;58635;51.198;6.010;2023-03-20T06:38:29;101804.03;;;11.58;58.04
70976;BME280;58635;51.198;6.010;2023-03-20T06:40:55;101798.84;;;11.58;58.16
70976;BME280;58635;51.198;6.010;2023-03-20T06:43:20;101807.09;;;11.61;58.17
70976;BME280;58635;51.198;6.010;2023-03-20T06:45:46;101804.94;;;11.65;58.06
70976;BME280;58635;51.198;6.010;2023-03-20T06:48:12;101806.81;;;11.71;57.99
70976;BME280;58635;51.198;6.010;2023-03-20T06:50:38;101815.06;;;11.75;57.82
70976;BME280;58635;51.198;6.010;2023-03-20T06:53:03;101812.91;;;11.78;57.78
70976;BME280;58635;51.198;6.010;2023-03-20T06:55:28;101818.75;;;11.80;57.73
70976;BME280;58635;51.198;6.010;2023-03-20T06:57:54;101816.97;;;11.81;57.70
70976;BME280;58635;51.198;6.010;2023-03-20T07:00:20;101819.22;;;11.84;57.75
70976;BME280;58635;51.198;6.010;2023-03-20T07:02:46;101818.88;;;11.87;57.83
70976;BME280;58635;51.198;6.010;2023-03-20T07:05:13;101821.91;;;11.90;57.55
70976;BME280;58635;51.198;6.010;2023-03-20T07:07:39;101833.53;;;11.94;57.42
70976;BME280;58635;51.198;6.010;2023-03-20T07:10:04;101837.41;;;11.98;57.43
70976;BME280;58635;51.198;6.010;2023-03-20T07:12:30;101841.06;;;12.04;57.25
70976;BME280;58635;51.198;6.010;2023-03-20T07:14:55;101843.28;;;12.07;57.29
70976;BME280;58635;51.198;6.010;2023-03-20T07:17:21;101847.16;;;12.11;57.13
70976;BME280;58635;51.198;6.010;2023-03-20T07:19:47;101847.97;;;12.12;57.07
70976;BME280;58635;51.198;6.010;2023-03-20T07:22:28;101843.84;;;12.17;56.91
70976;BME280;58635;51.198;6.010;2023-03-20T07:24:54;101853.53;;;12.23;56.87
70976;BME280;58635;51.198;6.010;2023-03-20T07:27:20;101851.19;;;12.28;56.59
70976;BME280;58635;51.198;6.010;2023-03-20T07:29:45;101858.47;;;12.33;56.63
70976;BME280;58635;51.198;6.010;2023-03-20T07:32:11;101857.72;;;12.39;56.39
70976;BME280;58635;51.198;6.010;2023-03-20T07:34:36;101855.41;;;12.44;56.23
70976;BME280;58635;51.198;6.010;2023-03-20T07:37:02;101855.06;;;12.47;55.77
70976;BME280;58635;51.198;6.010;2023-03-20T07:39:28;101861.41;;;12.45;55.58
70976;BME280;58635;51.198;6.010;2023-03-20T07:41:53;101857.28;;;12.36;55.71
70976;BME280;58635;51.198;6.010;2023-03-20T07:44:19;101859.25;;;12.34;55.88
70976;BME280;58635;51.198;6.010;2023-03-20T07:46:45;101858.72;;;12.38;55.76
70976;BME280;58635;51.198;6.010;2023-03-20T07:49:13;101861.31;;;12.38;55.75
70976;BME280;58635;51.198;6.010;2023-03-20T07:51:39;101863.72;;;12.40;55.73
70976;BME280;58635;51.198;6.010;2023-03-20T07:54:05;101859.16;;;12.42;55.45
70976;BME280;58635;51.198;6.010;2023-03-20T07:56:31;101860.59;;;12.44;55.68
70976;BME280;58635;51.198;6.010;2023-03-20T07:58:56;101864.06;;;12.51;55.32
70976;BME280;58635;51.198;6.010;2023-03-20T08:01:22;101870.19;;;12.58;55.39
70976;BME280;58635;51.198;6.010;2023-03-20T08:03:47;101874.44;;;12.66;55.28
70976;BME280;58635;51.198;6.010;2023-03-20T08:06:13;101878.94;;;12.72;54.98
70976;BME280;58635;51.198;6.010;2023-03-20T08:08:38;101874.00;;;12.77;54.50
70976;BME280;58635;51.198;6.010;2023-03-20T08:11:04;101873.66;;;12.80;54.42
70976;BME280;58635;51.198;6.010;2023-03-20T08:13:30;101871.94;;;12.87;54.69
70976;BME280;58635;51.198;6.010;2023-03-20T08:15:55;101873.25;;;12.98;54.05
70976;BME280;58635;51.198;6.010;2023-03-20T08:18:20;101868.94;;;13.05;54.08
70976;BME280;58635;51.198;6.010;2023-03-20T08:20:47;101866.41;;;13.12;53.83
70976;BME280;58635;51.198;6.010;2023-03-20T08:23:17;101866.88;;;13.15;53.69
70976;BME280;58635;51.198;6.010;2023-03-20T08:25:50;101862.94;;;13.20;53.51
70976;BME280;58635;51.198;6.010;2023-03-20T08:28:16;101863.94;;;13.19;53.77
70976;BME280;58635;51.198;6.010;2023-03-20T08:30:42;101867.03;;;13.29;53.47
70976;BME280;58635;51.198;6.010;2023-03-20T08:33:08;101861.09;;;13.35;53.43
70976;BME280;58635;51.198;6.010;2023-03-20T08:35:33;101874.53;;;13.38;53.13
70976;BME280;58635;51.198;6.010;2023-03-20T08:37:59;101868.78;;;13.43;53.28
70976;BME280;58635;51.198;6.010;2023-03-20T08:40:25;101868.19;;;13.48;52.96
70976;BME280;58635;51.198;6.010;2023-03-20T08:42:50;101874.19;;;13.48;52.78
70976;BME280;58635;51.198;6.010;2023-03-20T08:45:16;101871.59;;;13.48;52.65
70976;BME280;58635;51.198;6.010;2023-03-20T08:47:41;101883.78;;;13.48;52.64
70976;BME280;58635;51.198;6.010;2023-03-20T08:50:07;101882.00;;;13.48;52.41
70976;BME280;58635;51.198;6.010;2023-03-20T08:52:33;101877.78;;;13.47;51.90
70976;BME280;58635;51.198;6.010;2023-03-20T08:54:59;101870.75;;;13.41;51.71
70976;BME280;58635;51.198;6.010;2023-03-20T08:57:24;101878.53;;;13.41;51.74
70976;BME280;58635;51.198;6.010;2023-03-20T08:59:50;101869.75;;;13.42;51.40
70976;BME280;58635;51.198;6.010;2023-03-20T09:02:15;101880.78;;;13.44;51.35
70976;BME280;58635;51.198;6.010;2023-03-20T09:04:41;101869.00;;;13.48;51.26
70976;BME280;58635;51.198;6.010;2023-03-20T09:07:06;101876.63;;;13.50;50.73
70976;BME280;58635;51.198;6.010;2023-03-20T09:09:32;101871.97;;;13.45;50.66
70976;BME280;58635;51.198;6.010;2023-03-20T09:11:58;101879.78;;;13.45;50.37
70976;BME280;58635;51.198;6.010;2023-03-20T09:14:25;101869.38;;;13.45;50.59
70976;BME280;58635;51.198;6.010;2023-03-20T09:16:51;101871.97;;;13.45;50.37
70976;BME280;58635;51.198;6.010;2023-03-20T09:19:17;101869.38;;;13.45;50.25
70976;BME280;58635;51.198;6.010;2023-03-20T09:21:43;101870.00;;;13.47;50.07
70976;BME280;58635;51.198;6.010;2023-03-20T09:24:09;101871.97;;;13.45;50.16
70976;BME280;58635;51.198;6.010;2023-03-20T09:26:36;101872.25;;;13.50;50.20
70976;BME280;58635;51.198;6.010;2023-03-20T09:29:01;101876.06;;;13.54;49.49
70976;BME280;58635;51.198;6.010;2023-03-20T09:31:46;101872.41;;;13.49;48.88
70976;BME280;58635;51.198;6.010;2023-03-20T09:34:29;101882.75;;;13.42;48.89
70976;BME280;58635;51.198;6.010;2023-03-20T09:37:15;101881.88;;;13.35;48.18
70976;BME280;58635;51.198;6.010;2023-03-20T09:40:01;101880.25;;;13.34;48.42
70976;BME280;58635;51.198;6.010;2023-03-20T09:48:27;101881.28;;;13.54;48.30
70976;BME280;58635;51.198;6.010;2023-03-20T09:51:27;101884.91;;;13.60;48.37
70976;BME280;58635;51.198;6.010;2023-03-20T09:54:40;101888.16;;;13.62;48.25
70976;BME280;58635;51.198;6.010;2023-03-20T09:57:31;101889.31;;;13.59;48.27
70976;BME280;58635;51.198;6.010;2023-03-20T10:00:23;101885.09;;;13.58;48.46
70976;BME280;58635;51.198;6.010;2023-03-20T10:03:23;101880.47;;;13.54;48.06
70976;BME280;58635;51.198;6.010;2023-03-20T10:06:13;101884.16;;;13.44;48.33
70976;BME280;58635;51.198;6.010;2023-03-20T10:08:59;101887.44;;;13.32;48.22
70976;BME280;58635;51.198;6.010;2023-03-20T10:18:25;101883.97;;;13.10;49.26
70976;BME280;58635;51.198;6.010;2023-03-20T10:21:16;101880.00;;;13.14;49.90
70976;BME280;58635;51.198;6.010;2023-03-20T10:24:05;101880.84;;;13.14;50.54
70976;BME280;58635;51.198;6.010;2023-03-20T10:27:05;101882.28;;;13.17;50.78
70976;BME280;58635;51.198;6.010;2023-03-20T10:39:03;101866.06;;;13.15;51.63
70976;BME280;58635;51.198;6.010;2023-03-20T10:41:55;101869.38;;;13.09;52.21
70976;BME280;58635;51.198;6.010;2023-03-20T10:44:52;101869.00;;;13.12;52.58
70976;BME280;58635;51.198;6.010;2023-03-20T10:47:40;101874.00;;;13.13;52.73
70976;BME280;58635;51.198;6.010;2023-03-20T10:50:32;101874.75;;;13.22;52.97
70976;BME280;58635;51.198;6.010;2023-03-20T10:53:26;101871.16;;;13.23;52.77
70976;BME280;58635;51.198;6.010;2023-03-20T10:56:17;101864.78;;;13.26;52.81
70976;BME280;58635;51.198;6.010;2023-03-20T10:59:28;101861.03;;;13.28;52.88
70976;BME280;58635;51.198;6.010;2023-03-20T11:02:19;101863.69;;;13.35;52.52
70976;BME280;58635;51.198;6.010;2023-03-20T11:08:12;101858.19;;;13.44;52.63
70976;BME280;58635;51.198;6.010;2023-03-20T11:11:00;101857.00;;;13.47;52.42
70976;BME280;58635;51.198;6.010;2023-03-20T11:13:46;101854.59;;;13.45;52.80
70976;BME280;58635;51.198;6.010;2023-03-20T11:16:33;101853.88;;;13.52;52.72
70976;BME280;58635;51.198;6.010;2023-03-20T11:19:22;101851.31;;;13.58;52.73
70976;BME280;58635;51.198;6.010;2023-03-20T11:22:24;101852.22;;;13.72;52.51
70976;BME280;58635;51.198;6.010;2023-03-20T11:25:23;101846.47;;;13.77;52.06
70976;BME280;58635;51.198;6.010;2023-03-20T11:31:46;101841.19;;;13.91;52.12
70976;BME280;58635;51.198;6.010;2023-03-20T11:34:35;101847.41;;;13.97;52.23
70976;BME280;58635;51.198;6.010;2023-03-20T11:37:28;101849.88;;;14.05;51.78
70976;BME280;58635;51.198;6.010;2023-03-20T11:40:29;101853.34;;;14.12;51.75
70976;BME280;58635;51.198;6.010;2023-03-20T11:43:24;101843.84;;;14.32;51.87
70976;BME280;58635;51.198;6.010;2023-03-20T11:46:11;101836.75;;;14.54;51.19
70976;BME280;58635;51.198;6.010;2023-03-20T11:49:07;101831.00;;;14.66;51.13
70976;BME280;58635;51.198;6.010;2023-03-20T11:52:13;101826.84;;;14.78;50.77
70976;BME280;58635;51.198;6.010;2023-03-20T11:55:03;101830.06;;;14.80;50.45
70976;BME280;58635;51.198;6.010;2023-03-20T11:57:55;101825.84;;;14.79;50.37
70976;BME280;58635;51.198;6.010;2023-03-20T12:00:42;101812.41;;;14.75;50.60
70976;BME280;58635;51.198;6.010;2023-03-20T12:06:20;101803.41;;;14.78;50.40
70976;BME280;58635;51.198;6.010;2023-03-20T12:18:06;101796.84;;;15.02;50.29
70976;BME280;58635;51.198;6.010;2023-03-20T12:35:44;101784.25;;;15.12;50.14
70976;BME280;58635;51.198;6.010;2023-03-20T12:38:32;101785.47;;;15.16;50.07
70976;BME280;58635;51.198;6.010;2023-03-20T12:41:25;101786.25;;;15.23;49.73
70976;BME280;58635;51.198;6.010;2023-03-20T12:50:36;101770.84;;;15.35;49.14
70976;BME280;58635;51.198;6.010;2023-03-20T12:53:48;101771.44;;;15.37;48.92
70976;BME280;58635;51.198;6.010;2023-03-20T12:57:11;101774.03;;;15.30;49.03
70976;BME280;58635;51.198;6.010;2023-03-20T13:03:43;101764.81;;;15.34;48.97
70976;BME280;58635;51.198;6.010;2023-03-20T13:06:39;101748.97;;;15.36;48.99
70976;BME280;58635;51.198;6.010;2023-03-20T13:09:34;101758.41;;;15.43;48.61
70976;BME280;58635;51.198;6.010;2023-03-20T13:15:34;101753.97;;;15.50;48.79
70976;BME280;58635;51.198;6.010;2023-03-20T13:18:44;101749.75;;;15.49;48.58
70976;BME280;58635;51.198;6.010;2023-03-20T13:24:49;101753.56;;;15.47;48.68
70976;BME280;58635;51.198;6.010;2023-03-20T13:28:01;101751.56;;;15.49;48.73
70976;BME280;58635;51.198;6.010;2023-03-20T13:30:55;101741.13;;;15.49;48.66
70976;BME280;58635;51.198;6.010;2023-03-20T13:39:51;101731.94;;;15.33;48.07
70976;BME280;58635;51.198;6.010;2023-03-20T13:45:49;101729.53;;;15.12;48.57
70976;BME280;58635;51.198;6.010;2023-03-20T13:48:38;101723.31;;;15.06;49.02
70976;BME280;58635;51.198;6.010;2023-03-20T13:57:46;101727.34;;;15.15;48.91
70976;BME280;58635;51.198;6.010;2023-03-20T14:03:33;101721.31;;;15.15;49.00
70976;BME280;58635;51.198;6.010;2023-03-20T14:12:12;101720.91;;;15.25;48.36
70976;BME280;58635;51.198;6.010;2023-03-20T14:14:59;101716.91;;;15.15;48.68
70976;BME280;58635;51.198;6.010;2023-03-20T14:17:46;101719.31;;;15.10;48.73
70976;BME280;58635;51.198;6.010;2023-03-20T14:20:36;101713.50;;;15.08;48.65
70976;BME280;58635;51.198;6.010;2023-03-20T14:23:34;101722.91;;;15.03;49.14
70976;BME280;58635;51.198;6.010;2023-03-20T14:26:37;101722.53;;;15.06;49.14
70976;BME280;58635;51.198;6.010;2023-03-20T14:32:21;101719.31;;;15.04;48.90
70976;BME280;58635;51.198;6.010;2023-03-20T14:56:09;101688.22;;;15.35;48.62
70976;BME280;58635;51.198;6.010;2023-03-20T14:59:02;101680.59;;;15.27;48.61
70976;BME280;58635;51.198;6.010;2023-03-20T15:04:39;101663.97;;;15.21;48.46
70976;BME280;58635;51.198;6.010;2023-03-20T15:07:29;101665.16;;;15.26;48.67
70976;BME280;58635;51.198;6.010;2023-03-20T15:10:15;101657.13;;;15.27;48.94
70976;BME280;58635;51.198;6.010;2023-03-20T15:13:04;101656.75;;;15.24;49.23
70976;BME280;58635;51.198;6.010;2023-03-20T15:15:53;101657.38;;;15.19;49.40
70976;BME280;58635;51.198;6.010;2023-03-20T15:18:46;101659.16;;;15.12;49.63
70976;BME280;58635;51.198;6.010;2023-03-20T15:21:39;101659.38;;;15.10;50.12
70976;BME280;58635;51.198;6.010;2023-03-20T15:24:06;101654.19;;;15.04;50.26
70976;BME280;58635;51.198;6.010;2023-03-20T15:26:33;101662.97;;;15.03;50.47
70976;BME280;58635;51.198;6.010;2023-03-20T15:29:09;101652.38;;;14.98;50.67
70976;BME280;58635;51.198;6.010;2023-03-20T15:31:37;101644.38;;;14.93;50.79
70976;BME280;58635;51.198;6.010;2023-03-20T15:34:08;101655.97;;;14.97;50.95
70976;BME280;58635;51.198;6.010;2023-03-20T15:36:38;101656.38;;;15.00;50.85
70976;BME280;58635;51.198;6.010;2023-03-20T15:39:16;101652.16;;;14.99;50.99
70976;BME280;58635;51.198;6.010;2023-03-20T15:41:46;101644.56;;;15.04;50.94
70976;BME280;58635;51.198;6.010;2023-03-20T15:44:16;101650.16;;;15.08;50.85
70976;BME280;58635;51.198;6.010;2023-03-20T15:46:57;101641.72;;;15.12;51.07
70976;BME280;58635;51.198;6.010;2023-03-20T15:49:24;101640.72;;;15.13;50.79
70976;BME280;58635;51.198;6.010;2023-03-20T15:51:51;101631.72;;;15.16;50.71
70976;BME280;58635;51.198;6.010;2023-03-20T15:54:18;101640.53;;;15.15;50.79
70976;BME280;58635;51.198;6.010;2023-03-20T15:56:45;101640.94;;;15.12;50.76
70976;BME280;58635;51.198;6.010;2023-03-20T15:59:14;101628.91;;;15.11;50.93
70976;BME280;58635;51.198;6.010;2023-03-20T16:01:42;101633.13;;;15.12;50.86
70976;BME280;58635;51.198;6.010;2023-03-20T16:04:12;101629.50;;;15.13;50.59
70976;BME280;58635;51.198;6.010;2023-03-20T16:06:45;101624.13;;;15.08;50.53
70976;BME280;58635;51.198;6.010;2023-03-20T16:09:13;101633.34;;;15.04;50.81